sensor_id;sensor_type;location;lat;lon;timestamp;temperature;humidity
18392;DHT22;9322;50.932;5.318;2022-08-03T00:01:18;21.10;99.90
18392;DHT22;9322;50.932;5.318;2022-08-03T00:03:43;21.20;99.90
18392;DHT22;9322;50.932;5.318;2022-08-03T00:06:09;20.90;99.90
18392;DHT22;9322;50.932;5.318;2022-08-03T00:08:35;21.00;99.90
18392;DHT22;9322;50.932;5.318;2022-08-03T00:11:00;20.90;99.90
18392;DHT22;9322;50.932;5.318;2022-08-03T00:13:26;20.90;99.90
18392;DHT22;9322;50.932;5.318;2022-08-03T00:15:52;20.90;99.90
18392;DHT22;9322;50.932;5.318;2022-08-03T00:18:18;21.00;99.90
18392;DHT22;9322;50.932;5.318;2022-08-03T00:20:43;20.90;99.90
18392;DHT22;9322;50.932;5.318;2022-08-03T00:23:09;21.00;99.90
18392;DHT22;9322;50.932;5.318;2022-08-03T00:25:35;21.00;99.90
18392;DHT22;9322;50.932;5.318;2022-08-03T00:28:03;21.00;99.90
18392;DHT22;9322;50.932;5.318;2022-08-03T00:30:29;21.00;99.90
18392;DHT22;9322;50.932;5.318;2022-08-03T00:32:55;20.90;99.90
18392;DHT22;9322;50.932;5.318;2022-08-03T00:35:20;20.90;99.90
18392;DHT22;9322;50.932;5.318;2022-08-03T00:37:46;20.70;99.90
18392;DHT22;9322;50.932;5.318;2022-08-03T00:40:13;20.70;99.90
18392;DHT22;9322;50.932;5.318;2022-08-03T00:42:56;20.70;99.90
18392;DHT22;9322;50.932;5.318;2022-08-03T00:45:24;20.50;99.90
18392;DHT22;9322;50.932;5.318;2022-08-03T00:47:51;20.50;99.90
18392;DHT22;9322;50.932;5.318;2022-08-03T00:50:17;20.70;99.90
18392;DHT22;9322;50.932;5.318;2022-08-03T00:52:43;20.60;99.90
18392;DHT22;9322;50.932;5.318;2022-08-03T00:55:10;20.50;99.90
18392;DHT22;9322;50.932;5.318;2022-08-03T00:57:36;20.30;99.90
18392;DHT22;9322;50.932;5.318;2022-08-03T01:00:04;20.40;99.90
18392;DHT22;9322;50.932;5.318;2022-08-03T01:02:30;20.50;99.90
18392;DHT22;9322;50.932;5.318;2022-08-03T01:04:56;20.40;99.90
18392;DHT22;9322;50.932;5.318;2022-08-03T01:07:41;20.30;99.90
18392;DHT22;9322;50.932;5.318;2022-08-03T01:10:36;20.40;99.90
18392;DHT22;9322;50.932;5.318;2022-08-03T01:15:53;20.40;99.90
18392;DHT22;9322;50.932;5.318;2022-08-03T01:18:45;20.30;99.90
18392;DHT22;9322;50.932;5.318;2022-08-03T01:21:24;20.30;99.90
18392;DHT22;9322;50.932;5.318;2022-08-03T01:32:41;20.20;99.90
18392;DHT22;9322;50.932;5.318;2022-08-03T01:35:11;20.20;99.90
18392;DHT22;9322;50.932;5.318;2022-08-03T01:37:46;20.10;99.90
18392;DHT22;9322;50.932;5.318;2022-08-03T01:40:14;20.10;99.90
18392;DHT22;9322;50.932;5.318;2022-08-03T01:42:41;20.00;99.90
18392;DHT22;9322;50.932;5.318;2022-08-03T01:45:10;19.90;99.90
18392;DHT22;9322;50.932;5.318;2022-08-03T01:47:38;20.00;99.90
18392;DHT22;9322;50.932;5.318;2022-08-03T01:50:05;19.90;99.90
18392;DHT22;9322;50.932;5.318;2022-08-03T01:52:32;19.90;99.90
18392;DHT22;9322;50.932;5.318;2022-08-03T01:54:59;19.80;99.90
18392;DHT22;9322;50.932;5.318;2022-08-03T01:57:27;19.70;99.90
18392;DHT22;9322;50.932;5.318;2022-08-03T01:59:53;19.70;99.90
18392;DHT22;9322;50.932;5.318;2022-08-03T02:02:20;19.60;99.90
18392;DHT22;9322;50.932;5.318;2022-08-03T02:04:46;19.70;99.90
18392;DHT22;9322;50.932;5.318;2022-08-03T02:07:14;19.60;99.90
18392;DHT22;9322;50.932;5.318;2022-08-03T02:09:43;19.60;99.90
18392;DHT22;9322;50.932;5.318;2022-08-03T02:12:10;19.50;99.90
18392;DHT22;9322;50.932;5.318;2022-08-03T02:14:38;19.40;99.90
18392;DHT22;9322;50.932;5.318;2022-08-03T02:17:06;19.30;99.90
18392;DHT22;9322;50.932;5.318;2022-08-03T02:19:32;19.50;99.90
18392;DHT22;9322;50.932;5.318;2022-08-03T02:21:59;19.50;99.90
18392;DHT22;9322;50.932;5.318;2022-08-03T02:24:25;19.50;99.90
18392;DHT22;9322;50.932;5.318;2022-08-03T02:26:52;19.40;99.90
18392;DHT22;9322;50.932;5.318;2022-08-03T02:29:22;19.50;99.90
18392;DHT22;9322;50.932;5.318;2022-08-03T02:31:49;19.50;99.90
18392;DHT22;9322;50.932;5.318;2022-08-03T02:34:17;19.50;99.90
18392;DHT22;9322;50.932;5.318;2022-08-03T02:36:47;19.50;99.90
18392;DHT22;9322;50.932;5.318;2022-08-03T02:39:18;19.30;99.90
18392;DHT22;9322;50.932;5.318;2022-08-03T02:41:49;19.30;99.90
18392;DHT22;9322;50.932;5.318;2022-08-03T02:44:17;19.20;99.90
18392;DHT22;9322;50.932;5.318;2022-08-03T02:46:45;19.30;99.90
18392;DHT22;9322;50.932;5.318;2022-08-03T02:49:15;19.30;99.90
18392;DHT22;9322;50.932;5.318;2022-08-03T02:51:44;19.30;99.90
18392;DHT22;9322;50.932;5.318;2022-08-03T02:54:15;19.30;99.90
18392;DHT22;9322;50.932;5.318;2022-08-03T02:56:43;19.40;99.90
18392;DHT22;9322;50.932;5.318;2022-08-03T02:59:10;19.30;99.90
18392;DHT22;9322;50.932;5.318;2022-08-03T03:01:37;19.30;99.90
18392;DHT22;9322;50.932;5.318;2022-08-03T03:04:04;19.40;99.90
18392;DHT22;9322;50.932;5.318;2022-08-03T03:06:30;19.40;99.90
18392;DHT22;9322;50.932;5.318;2022-08-03T03:08:58;19.30;99.90
18392;DHT22;9322;50.932;5.318;2022-08-03T03:11:25;19.30;99.90
18392;DHT22;9322;50.932;5.318;2022-08-03T03:13:52;19.30;99.90
18392;DHT22;9322;50.932;5.318;2022-08-03T03:16:18;19.30;99.90
18392;DHT22;9322;50.932;5.318;2022-08-03T03:18:46;19.40;99.90
18392;DHT22;9322;50.932;5.318;2022-08-03T03:21:15;19.40;99.90
18392;DHT22;9322;50.932;5.318;2022-08-03T03:23:42;19.50;99.90
18392;DHT22;9322;50.932;5.318;2022-08-03T03:26:08;19.40;99.90
18392;DHT22;9322;50.932;5.318;2022-08-03T03:28:35;19.30;99.90
18392;DHT22;9322;50.932;5.318;2022-08-03T03:31:03;19.10;99.90
18392;DHT22;9322;50.932;5.318;2022-08-03T03:33:29;19.00;99.90
18392;DHT22;9322;50.932;5.318;2022-08-03T03:35:55;19.10;99.90
18392;DHT22;9322;50.932;5.318;2022-08-03T03:38:21;19.20;99.90
18392;DHT22;9322;50.932;5.318;2022-08-03T03:40:48;19.20;99.90
18392;DHT22;9322;50.932;5.318;2022-08-03T03:43:14;19.10;99.90
18392;DHT22;9322;50.932;5.318;2022-08-03T03:45:41;19.20;99.90
18392;DHT22;9322;50.932;5.318;2022-08-03T03:48:09;19.10;99.90
18392;DHT22;9322;50.932;5.318;2022-08-03T03:50:36;19.10;99.90
18392;DHT22;9322;50.932;5.318;2022-08-03T03:53:02;19.00;99.90
18392;DHT22;9322;50.932;5.318;2022-08-03T03:55:29;18.90;99.90
18392;DHT22;9322;50.932;5.318;2022-08-03T03:57:55;19.00;99.90
18392;DHT22;9322;50.932;5.318;2022-08-03T04:00:21;19.00;99.90
18392;DHT22;9322;50.932;5.318;2022-08-03T04:02:46;19.00;99.90
18392;DHT22;9322;50.932;5.318;2022-08-03T04:05:13;19.00;99.90
18392;DHT22;9322;50.932;5.318;2022-08-03T04:07:59;19.10;99.90
18392;DHT22;9322;50.932;5.318;2022-08-03T04:11:00;19.10;99.90
18392;DHT22;9322;50.932;5.318;2022-08-03T04:13:37;19.10;99.90
18392;DHT22;9322;50.932;5.318;2022-08-03T04:16:04;19.00;99.90
18392;DHT22;9322;50.932;5.318;2022-08-03T04:18:33;19.00;99.90
18392;DHT22;9322;50.932;5.318;2022-08-03T04:21:05;19.20;99.90
18392;DHT22;9322;50.932;5.318;2022-08-03T04:23:35;19.10;99.90
18392;DHT22;9322;50.932;5.318;2022-08-03T04:26:02;19.10;99.90
18392;DHT22;9322;50.932;5.318;2022-08-03T04:28:30;19.10;99.90
18392;DHT22;9322;50.932;5.318;2022-08-03T04:31:02;19.10;99.90
18392;DHT22;9322;50.932;5.318;2022-08-03T04:33:30;19.20;99.90
18392;DHT22;9322;50.932;5.318;2022-08-03T04:35:58;19.10;99.90
18392;DHT22;9322;50.932;5.318;2022-08-03T04:38:24;19.10;99.90
18392;DHT22;9322;50.932;5.318;2022-08-03T04:40:52;19.20;99.90
18392;DHT22;9322;50.932;5.318;2022-08-03T04:43:18;19.20;99.90
18392;DHT22;9322;50.932;5.318;2022-08-03T04:45:46;19.40;99.90
18392;DHT22;9322;50.932;5.318;2022-08-03T04:48:13;19.40;99.90
18392;DHT22;9322;50.932;5.318;2022-08-03T04:50:40;19.50;99.90
18392;DHT22;9322;50.932;5.318;2022-08-03T04:53:06;19.50;99.90
18392;DHT22;9322;50.932;5.318;2022-08-03T04:55:33;19.60;99.90
18392;DHT22;9322;50.932;5.318;2022-08-03T04:58:00;19.60;99.90
18392;DHT22;9322;50.932;5.318;2022-08-03T05:00:26;19.70;99.90
18392;DHT22;9322;50.932;5.318;2022-08-03T05:02:52;19.70;99.90
18392;DHT22;9322;50.932;5.318;2022-08-03T05:05:21;19.60;99.90
18392;DHT22;9322;50.932;5.318;2022-08-03T05:07:47;19.80;99.90
18392;DHT22;9322;50.932;5.318;2022-08-03T05:10:15;19.90;99.90
18392;DHT22;9322;50.932;5.318;2022-08-03T05:12:41;19.80;99.90
18392;DHT22;9322;50.932;5.318;2022-08-03T05:15:07;20.10;99.90
18392;DHT22;9322;50.932;5.318;2022-08-03T05:17:32;20.30;99.90
18392;DHT22;9322;50.932;5.318;2022-08-03T05:19:59;21.20;99.90
18392;DHT22;9322;50.932;5.318;2022-08-03T05:22:25;21.80;99.90
18392;DHT22;9322;50.932;5.318;2022-08-03T05:24:51;22.90;99.90
18392;DHT22;9322;50.932;5.318;2022-08-03T05:27:17;24.10;95.00
18392;DHT22;9322;50.932;5.318;2022-08-03T05:29:46;25.30;82.40
18392;DHT22;9322;50.932;5.318;2022-08-03T05:32:12;26.50;71.70
18392;DHT22;9322;50.932;5.318;2022-08-03T05:34:38;27.40;66.50
18392;DHT22;9322;50.932;5.318;2022-08-03T05:37:04;27.80;62.90
18392;DHT22;9322;50.932;5.318;2022-08-03T05:39:29;27.40;62.50
18392;DHT22;9322;50.932;5.318;2022-08-03T05:41:55;28.20;59.60
18392;DHT22;9322;50.932;5.318;2022-08-03T05:44:21;28.70;56.20
18392;DHT22;9322;50.932;5.318;2022-08-03T05:46:46;29.30;55.50
18392;DHT22;9322;50.932;5.318;2022-08-03T05:49:12;29.50;53.80
18392;DHT22;9322;50.932;5.318;2022-08-03T05:51:37;28.70;55.70
18392;DHT22;9322;50.932;5.318;2022-08-03T05:54:03;28.80;55.10
18392;DHT22;9322;50.932;5.318;2022-08-03T05:56:29;28.70;56.00
18392;DHT22;9322;50.932;5.318;2022-08-03T05:58:54;29.10;54.70
18392;DHT22;9322;50.932;5.318;2022-08-03T06:01:20;29.30;55.10
18392;DHT22;9322;50.932;5.318;2022-08-03T06:03:47;30.70;50.80
18392;DHT22;9322;50.932;5.318;2022-08-03T06:06:13;31.70;49.20
18392;DHT22;9322;50.932;5.318;2022-08-03T06:08:39;31.10;49.80
18392;DHT22;9322;50.932;5.318;2022-08-03T06:11:05;29.70;52.60
18392;DHT22;9322;50.932;5.318;2022-08-03T06:13:31;28.40;56.00
18392;DHT22;9322;50.932;5.318;2022-08-03T06:15:57;28.50;54.60
18392;DHT22;9322;50.932;5.318;2022-08-03T06:18:22;29.40;54.20
18392;DHT22;9322;50.932;5.318;2022-08-03T06:20:49;31.50;49.60
18392;DHT22;9322;50.932;5.318;2022-08-03T06:23:16;31.50;48.60
18392;DHT22;9322;50.932;5.318;2022-08-03T06:25:42;30.60;49.60
18392;DHT22;9322;50.932;5.318;2022-08-03T06:28:08;31.40;49.10
18392;DHT22;9322;50.932;5.318;2022-08-03T06:30:34;32.30;46.70
18392;DHT22;9322;50.932;5.318;2022-08-03T06:33:00;32.20;46.20
18392;DHT22;9322;50.932;5.318;2022-08-03T06:35:25;31.10;48.20
18392;DHT22;9322;50.932;5.318;2022-08-03T06:37:53;31.10;49.20
18392;DHT22;9322;50.932;5.318;2022-08-03T06:40:23;31.50;48.70
18392;DHT22;9322;50.932;5.318;2022-08-03T06:43:00;32.80;46.20
18392;DHT22;9322;50.932;5.318;2022-08-03T06:45:27;33.80;43.10
18392;DHT22;9322;50.932;5.318;2022-08-03T06:48:19;35.20;41.50
18392;DHT22;9322;50.932;5.318;2022-08-03T06:50:45;36.40;39.20
18392;DHT22;9322;50.932;5.318;2022-08-03T06:53:11;36.30;39.20
18392;DHT22;9322;50.932;5.318;2022-08-03T06:55:36;34.90;40.80
18392;DHT22;9322;50.932;5.318;2022-08-03T06:58:02;34.90;40.60
18392;DHT22;9322;50.932;5.318;2022-08-03T07:00:28;33.50;43.50
18392;DHT22;9322;50.932;5.318;2022-08-03T07:02:55;32.30;46.60
18392;DHT22;9322;50.932;5.318;2022-08-03T07:05:20;32.60;45.70
18392;DHT22;9322;50.932;5.318;2022-08-03T07:07:47;32.50;46.90
18392;DHT22;9322;50.932;5.318;2022-08-03T07:10:13;34.00;43.80
18392;DHT22;9322;50.932;5.318;2022-08-03T07:12:39;35.20;41.20
18392;DHT22;9322;50.932;5.318;2022-08-03T07:15:07;35.50;41.20
18392;DHT22;9322;50.932;5.318;2022-08-03T07:17:34;36.30;39.10
18392;DHT22;9322;50.932;5.318;2022-08-03T07:20:02;37.30;38.90
18392;DHT22;9322;50.932;5.318;2022-08-03T07:22:28;35.10;40.60
18392;DHT22;9322;50.932;5.318;2022-08-03T07:24:54;35.10;41.60
18392;DHT22;9322;50.932;5.318;2022-08-03T07:27:20;35.60;40.40
18392;DHT22;9322;50.932;5.318;2022-08-03T07:29:45;37.40;39.40
18392;DHT22;9322;50.932;5.318;2022-08-03T07:32:11;37.40;37.90
18392;DHT22;9322;50.932;5.318;2022-08-03T07:34:37;37.20;36.90
18392;DHT22;9322;50.932;5.318;2022-08-03T07:37:02;37.90;35.50
18392;DHT22;9322;50.932;5.318;2022-08-03T07:39:28;39.40;34.50
18392;DHT22;9322;50.932;5.318;2022-08-03T07:41:54;40.00;32.60
18392;DHT22;9322;50.932;5.318;2022-08-03T07:44:19;40.50;32.60
18392;DHT22;9322;50.932;5.318;2022-08-03T07:46:46;40.10;32.70
18392;DHT22;9322;50.932;5.318;2022-08-03T07:49:12;39.70;32.70
18392;DHT22;9322;50.932;5.318;2022-08-03T07:51:38;40.30;32.00
18392;DHT22;9322;50.932;5.318;2022-08-03T07:54:04;40.50;32.40
18392;DHT22;9322;50.932;5.318;2022-08-03T07:56:30;41.20;31.40
18392;DHT22;9322;50.932;5.318;2022-08-03T07:58:55;41.50;31.10
18392;DHT22;9322;50.932;5.318;2022-08-03T08:01:22;41.00;31.80
18392;DHT22;9322;50.932;5.318;2022-08-03T08:03:48;40.90;31.40
18392;DHT22;9322;50.932;5.318;2022-08-03T08:06:14;41.20;31.50
18392;DHT22;9322;50.932;5.318;2022-08-03T08:08:40;41.20;32.10
18392;DHT22;9322;50.932;5.318;2022-08-03T08:11:06;41.70;30.70
18392;DHT22;9322;50.932;5.318;2022-08-03T08:13:32;42.60;29.90
18392;DHT22;9322;50.932;5.318;2022-08-03T08:15:58;42.80;28.60
18392;DHT22;9322;50.932;5.318;2022-08-03T08:18:24;42.30;30.10
18392;DHT22;9322;50.932;5.318;2022-08-03T08:20:50;41.60;29.90
18392;DHT22;9322;50.932;5.318;2022-08-03T08:23:16;42.00;30.00
18392;DHT22;9322;50.932;5.318;2022-08-03T08:25:47;42.40;29.70
18392;DHT22;9322;50.932;5.318;2022-08-03T08:28:15;41.80;29.80
18392;DHT22;9322;50.932;5.318;2022-08-03T08:30:41;41.20;31.40
18392;DHT22;9322;50.932;5.318;2022-08-03T08:33:07;42.40;30.00
18392;DHT22;9322;50.932;5.318;2022-08-03T08:35:33;43.00;29.20
18392;DHT22;9322;50.932;5.318;2022-08-03T08:37:59;43.20;28.50
18392;DHT22;9322;50.932;5.318;2022-08-03T08:40:26;43.20;29.40
18392;DHT22;9322;50.932;5.318;2022-08-03T08:42:52;42.60;28.40
18392;DHT22;9322;50.932;5.318;2022-08-03T08:45:17;41.90;29.80
18392;DHT22;9322;50.932;5.318;2022-08-03T08:47:46;42.90;29.10
18392;DHT22;9322;50.932;5.318;2022-08-03T08:50:12;44.00;28.20
18392;DHT22;9322;50.932;5.318;2022-08-03T08:52:39;44.20;28.20
18392;DHT22;9322;50.932;5.318;2022-08-03T08:55:08;44.60;27.20
18392;DHT22;9322;50.932;5.318;2022-08-03T08:57:43;44.70;26.30
18392;DHT22;9322;50.932;5.318;2022-08-03T09:00:10;44.40;27.10
18392;DHT22;9322;50.932;5.318;2022-08-03T09:02:41;44.50;27.00
18392;DHT22;9322;50.932;5.318;2022-08-03T09:05:12;45.10;27.00
18392;DHT22;9322;50.932;5.318;2022-08-03T09:07:39;45.50;26.00
18392;DHT22;9322;50.932;5.318;2022-08-03T09:10:06;44.00;27.20
18392;DHT22;9322;50.932;5.318;2022-08-03T09:12:42;43.10;28.80
18392;DHT22;9322;50.932;5.318;2022-08-03T09:15:20;42.80;28.20
18392;DHT22;9322;50.932;5.318;2022-08-03T09:17:46;41.90;29.10
18392;DHT22;9322;50.932;5.318;2022-08-03T09:20:12;40.80;30.40
18392;DHT22;9322;50.932;5.318;2022-08-03T09:23:00;41.20;30.50
18392;DHT22;9322;50.932;5.318;2022-08-03T09:27:52;42.10;30.20
18392;DHT22;9322;50.932;5.318;2022-08-03T09:30:18;40.90;31.00
18392;DHT22;9322;50.932;5.318;2022-08-03T09:32:44;39.20;32.90
18392;DHT22;9322;50.932;5.318;2022-08-03T09:35:12;39.80;32.10
18392;DHT22;9322;50.932;5.318;2022-08-03T09:37:38;39.80;31.10
18392;DHT22;9322;50.932;5.318;2022-08-03T09:40:05;38.50;33.60
18392;DHT22;9322;50.932;5.318;2022-08-03T09:42:31;39.90;31.10
18392;DHT22;9322;50.932;5.318;2022-08-03T09:44:59;41.40;30.00
18392;DHT22;9322;50.932;5.318;2022-08-03T09:47:30;41.20;30.20
18392;DHT22;9322;50.932;5.318;2022-08-03T09:50:03;41.90;29.50
18392;DHT22;9322;50.932;5.318;2022-08-03T09:52:39;41.80;29.50
18392;DHT22;9322;50.932;5.318;2022-08-03T09:55:13;41.80;29.60
18392;DHT22;9322;50.932;5.318;2022-08-03T09:57:39;42.90;27.80
18392;DHT22;9322;50.932;5.318;2022-08-03T10:00:13;41.60;29.20
18392;DHT22;9322;50.932;5.318;2022-08-03T10:02:40;42.70;29.00
18392;DHT22;9322;50.932;5.318;2022-08-03T10:05:08;43.70;27.20
18392;DHT22;9322;50.932;5.318;2022-08-03T10:07:49;44.60;26.30
18392;DHT22;9322;50.932;5.318;2022-08-03T10:10:16;45.40;25.10
18392;DHT22;9322;50.932;5.318;2022-08-03T10:12:43;45.40;25.50
18392;DHT22;9322;50.932;5.318;2022-08-03T10:15:09;46.10;25.60
18392;DHT22;9322;50.932;5.318;2022-08-03T10:17:38;46.20;25.00
18392;DHT22;9322;50.932;5.318;2022-08-03T10:20:05;44.80;25.70
18392;DHT22;9322;50.932;5.318;2022-08-03T10:22:35;45.50;25.60
18392;DHT22;9322;50.932;5.318;2022-08-03T10:27:41;45.90;25.00
18392;DHT22;9322;50.932;5.318;2022-08-03T10:30:08;46.60;24.20
18392;DHT22;9322;50.932;5.318;2022-08-03T10:35:13;46.10;25.00
18392;DHT22;9322;50.932;5.318;2022-08-03T10:37:49;45.10;25.20
18392;DHT22;9322;50.932;5.318;2022-08-03T10:40:17;44.90;25.70
18392;DHT22;9322;50.932;5.318;2022-08-03T10:42:46;45.40;25.50
18392;DHT22;9322;50.932;5.318;2022-08-03T10:45:19;46.00;25.80
18392;DHT22;9322;50.932;5.318;2022-08-03T10:47:48;45.40;25.30
18392;DHT22;9322;50.932;5.318;2022-08-03T10:50:16;44.10;27.10
18392;DHT22;9322;50.932;5.318;2022-08-03T10:52:56;44.70;26.40
18392;DHT22;9322;50.932;5.318;2022-08-03T10:55:33;44.90;25.80
18392;DHT22;9322;50.932;5.318;2022-08-03T11:01:09;45.70;25.60
18392;DHT22;9322;50.932;5.318;2022-08-03T11:08:46;45.00;26.00
18392;DHT22;9322;50.932;5.318;2022-08-03T11:14:11;42.70;28.30
18392;DHT22;9322;50.932;5.318;2022-08-03T11:16:41;44.00;27.40
18392;DHT22;9322;50.932;5.318;2022-08-03T11:19:17;44.00;28.10
18392;DHT22;9322;50.932;5.318;2022-08-03T11:35:21;45.40;26.70
18392;DHT22;9322;50.932;5.318;2022-08-03T11:40:47;45.90;25.60
18392;DHT22;9322;50.932;5.318;2022-08-03T11:46:06;45.20;26.50
18392;DHT22;9322;50.932;5.318;2022-08-03T11:51:06;45.30;26.70
18392;DHT22;9322;50.932;5.318;2022-08-03T11:53:32;44.80;26.70
18392;DHT22;9322;50.932;5.318;2022-08-03T11:56:00;44.60;26.20
18392;DHT22;9322;50.932;5.318;2022-08-03T11:58:26;45.20;25.70
18392;DHT22;9322;50.932;5.318;2022-08-03T12:00:56;44.60;27.20
18392;DHT22;9322;50.932;5.318;2022-08-03T12:03:31;45.20;26.70
18392;DHT22;9322;50.932;5.318;2022-08-03T12:05:57;45.10;26.60
18392;DHT22;9322;50.932;5.318;2022-08-03T12:10:52;43.80;27.70
18392;DHT22;9322;50.932;5.318;2022-08-03T12:13:19;43.40;27.40
18392;DHT22;9322;50.932;5.318;2022-08-03T12:15:53;42.30;28.60
18392;DHT22;9322;50.932;5.318;2022-08-03T12:18:20;40.20;30.20
18392;DHT22;9322;50.932;5.318;2022-08-03T12:20:51;39.60;31.20
18392;DHT22;9322;50.932;5.318;2022-08-03T12:23:18;39.20;31.90
18392;DHT22;9322;50.932;5.318;2022-08-03T12:25:45;39.20;32.50
18392;DHT22;9322;50.932;5.318;2022-08-03T12:28:12;38.80;32.90
18392;DHT22;9322;50.932;5.318;2022-08-03T12:30:42;38.40;32.70
18392;DHT22;9322;50.932;5.318;2022-08-03T12:33:21;38.40;33.30
18392;DHT22;9322;50.932;5.318;2022-08-03T12:35:51;38.70;32.80
18392;DHT22;9322;50.932;5.318;2022-08-03T12:38:26;38.80;32.70
18392;DHT22;9322;50.932;5.318;2022-08-03T12:41:00;38.30;33.70
18392;DHT22;9322;50.932;5.318;2022-08-03T12:43:26;38.10;32.90
18392;DHT22;9322;50.932;5.318;2022-08-03T12:46:09;37.90;33.60
18392;DHT22;9322;50.932;5.318;2022-08-03T12:48:35;37.20;34.30
18392;DHT22;9322;50.932;5.318;2022-08-03T12:51:08;36.80;34.60
18392;DHT22;9322;50.932;5.318;2022-08-03T12:53:34;35.80;35.40
18392;DHT22;9322;50.932;5.318;2022-08-03T12:56:04;35.80;35.60
18392;DHT22;9322;50.932;5.318;2022-08-03T12:58:34;36.20;35.60
18392;DHT22;9322;50.932;5.318;2022-08-03T13:01:03;36.80;35.30
18392;DHT22;9322;50.932;5.318;2022-08-03T13:03:42;36.90;34.10
18392;DHT22;9322;50.932;5.318;2022-08-03T13:06:15;36.80;34.20
18392;DHT22;9322;50.932;5.318;2022-08-03T13:08:42;36.70;35.00
18392;DHT22;9322;50.932;5.318;2022-08-03T13:11:26;36.50;34.40
18392;DHT22;9322;50.932;5.318;2022-08-03T13:13:53;36.60;34.20
18392;DHT22;9322;50.932;5.318;2022-08-03T13:16:20;36.40;34.40
18392;DHT22;9322;50.932;5.318;2022-08-03T13:18:48;35.90;34.80
18392;DHT22;9322;50.932;5.318;2022-08-03T13:21:17;35.30;36.50
18392;DHT22;9322;50.932;5.318;2022-08-03T13:23:43;34.70;36.90
18392;DHT22;9322;50.932;5.318;2022-08-03T13:26:09;35.10;37.60
18392;DHT22;9322;50.932;5.318;2022-08-03T13:28:36;35.30;36.40
18392;DHT22;9322;50.932;5.318;2022-08-03T13:31:02;35.70;36.80
18392;DHT22;9322;50.932;5.318;2022-08-03T13:33:27;36.00;35.80
18392;DHT22;9322;50.932;5.318;2022-08-03T13:35:53;36.10;35.60
18392;DHT22;9322;50.932;5.318;2022-08-03T13:38:19;35.20;36.50
18392;DHT22;9322;50.932;5.318;2022-08-03T13:40:45;35.40;36.20
18392;DHT22;9322;50.932;5.318;2022-08-03T13:43:11;35.70;35.70
18392;DHT22;9322;50.932;5.318;2022-08-03T13:45:37;35.80;35.90
18392;DHT22;9322;50.932;5.318;2022-08-03T13:48:03;35.70;35.20
18392;DHT22;9322;50.932;5.318;2022-08-03T13:50:29;35.70;36.60
18392;DHT22;9322;50.932;5.318;2022-08-03T13:52:56;35.40;36.50
18392;DHT22;9322;50.932;5.318;2022-08-03T13:55:23;35.50;36.00
18392;DHT22;9322;50.932;5.318;2022-08-03T13:57:48;35.80;36.70
18392;DHT22;9322;50.932;5.318;2022-08-03T14:00:16;36.00;36.40
18392;DHT22;9322;50.932;5.318;2022-08-03T14:02:42;36.10;35.10
18392;DHT22;9322;50.932;5.318;2022-08-03T14:05:08;36.10;35.50
18392;DHT22;9322;50.932;5.318;2022-08-03T14:07:34;36.10;34.50
18392;DHT22;9322;50.932;5.318;2022-08-03T14:10:00;36.00;35.20
18392;DHT22;9322;50.932;5.318;2022-08-03T14:12:26;35.50;36.50
18392;DHT22;9322;50.932;5.318;2022-08-03T14:14:52;35.70;35.60
18392;DHT22;9322;50.932;5.318;2022-08-03T14:17:18;35.30;35.60
18392;DHT22;9322;50.932;5.318;2022-08-03T14:19:44;35.40;36.50
18392;DHT22;9322;50.932;5.318;2022-08-03T14:22:09;35.50;35.60
18392;DHT22;9322;50.932;5.318;2022-08-03T14:24:35;35.70;35.10
18392;DHT22;9322;50.932;5.318;2022-08-03T14:27:01;35.40;35.20
18392;DHT22;9322;50.932;5.318;2022-08-03T14:29:26;34.80;35.80
18392;DHT22;9322;50.932;5.318;2022-08-03T14:31:52;34.80;35.80
18392;DHT22;9322;50.932;5.318;2022-08-03T14:34:17;34.90;36.30
18392;DHT22;9322;50.932;5.318;2022-08-03T14:36:43;35.30;35.80
18392;DHT22;9322;50.932;5.318;2022-08-03T14:39:09;35.40;36.80
18392;DHT22;9322;50.932;5.318;2022-08-03T14:41:34;35.40;35.10
18392;DHT22;9322;50.932;5.318;2022-08-03T14:44:00;35.40;36.00
18392;DHT22;9322;50.932;5.318;2022-08-03T14:46:26;35.20;36.30
18392;DHT22;9322;50.932;5.318;2022-08-03T14:48:51;35.50;35.40
18392;DHT22;9322;50.932;5.318;2022-08-03T14:51:17;35.30;36.00
18392;DHT22;9322;50.932;5.318;2022-08-03T14:53:43;35.30;35.20
18392;DHT22;9322;50.932;5.318;2022-08-03T14:56:10;34.70;35.70
18392;DHT22;9322;50.932;5.318;2022-08-03T14:58:36;34.60;35.90
18392;DHT22;9322;50.932;5.318;2022-08-03T15:01:01;34.40;36.40
18392;DHT22;9322;50.932;5.318;2022-08-03T15:03:27;34.50;35.90
18392;DHT22;9322;50.932;5.318;2022-08-03T15:05:54;34.60;36.30
18392;DHT22;9322;50.932;5.318;2022-08-03T15:08:21;34.20;36.80
18392;DHT22;9322;50.932;5.318;2022-08-03T15:10:47;34.30;37.60
18392;DHT22;9322;50.932;5.318;2022-08-03T15:13:13;34.40;36.30
18392;DHT22;9322;50.932;5.318;2022-08-03T15:15:39;34.10;37.10
18392;DHT22;9322;50.932;5.318;2022-08-03T15:18:05;33.80;37.00
18392;DHT22;9322;50.932;5.318;2022-08-03T15:20:31;33.50;37.50
18392;DHT22;9322;50.932;5.318;2022-08-03T15:22:56;33.50;37.50
18392;DHT22;9322;50.932;5.318;2022-08-03T15:25:22;33.40;37.50
18392;DHT22;9322;50.932;5.318;2022-08-03T15:27:48;33.50;37.80
18392;DHT22;9322;50.932;5.318;2022-08-03T15:30:13;33.80;37.50
18392;DHT22;9322;50.932;5.318;2022-08-03T15:32:39;33.70;37.90
18392;DHT22;9322;50.932;5.318;2022-08-03T15:35:05;33.70;37.60
18392;DHT22;9322;50.932;5.318;2022-08-03T15:37:31;33.90;37.50
18392;DHT22;9322;50.932;5.318;2022-08-03T15:39:56;34.00;36.80
18392;DHT22;9322;50.932;5.318;2022-08-03T15:42:22;34.20;36.70
18392;DHT22;9322;50.932;5.318;2022-08-03T15:44:48;34.00;36.80
18392;DHT22;9322;50.932;5.318;2022-08-03T15:47:13;34.10;37.20
18392;DHT22;9322;50.932;5.318;2022-08-03T15:49:40;34.10;37.20
18392;DHT22;9322;50.932;5.318;2022-08-03T15:52:06;34.30;37.30
18392;DHT22;9322;50.932;5.318;2022-08-03T15:54:32;34.20;37.20
18392;DHT22;9322;50.932;5.318;2022-08-03T15:56:57;34.00;37.40
18392;DHT22;9322;50.932;5.318;2022-08-03T15:59:23;34.10;37.00
18392;DHT22;9322;50.932;5.318;2022-08-03T16:01:49;33.80;37.10
18392;DHT22;9322;50.932;5.318;2022-08-03T16:04:14;33.60;37.70
18392;DHT22;9322;50.932;5.318;2022-08-03T16:06:40;33.40;37.10
18392;DHT22;9322;50.932;5.318;2022-08-03T16:09:07;32.90;37.50
18392;DHT22;9322;50.932;5.318;2022-08-03T16:11:33;32.80;37.70
18392;DHT22;9322;50.932;5.318;2022-08-03T16:13:59;32.90;37.60
18392;DHT22;9322;50.932;5.318;2022-08-03T16:16:25;33.10;38.10
18392;DHT22;9322;50.932;5.318;2022-08-03T16:18:50;33.40;37.10
18392;DHT22;9322;50.932;5.318;2022-08-03T16:21:16;33.30;38.30
18392;DHT22;9322;50.932;5.318;2022-08-03T16:23:41;33.30;38.70
18392;DHT22;9322;50.932;5.318;2022-08-03T16:26:08;33.40;38.90
18392;DHT22;9322;50.932;5.318;2022-08-03T16:28:34;33.20;38.20
18392;DHT22;9322;50.932;5.318;2022-08-03T16:31:03;33.50;38.80
18392;DHT22;9322;50.932;5.318;2022-08-03T16:33:29;33.60;38.20
18392;DHT22;9322;50.932;5.318;2022-08-03T16:35:55;33.40;38.80
18392;DHT22;9322;50.932;5.318;2022-08-03T16:38:21;33.30;38.80
18392;DHT22;9322;50.932;5.318;2022-08-03T16:40:48;33.50;38.10
18392;DHT22;9322;50.932;5.318;2022-08-03T16:43:16;33.50;37.00